Crescent City, CA

7:13 PM PDT on September 01, 2014 (GMT -0700)
McNamara | Change Station
CLOSE
Current Station
Airport
Location: Crescent City,
Elevation: 56 ft
Nearby Weather Stations

Elev 56 ft 41.78 °N, 124.24 °W | Updated 1 hour ago

Clear
Clear
63 °F
Feels Like 63 °F
N
13
Wind Variable Wind from North
Gusts 21 mph

Today
High -- | Low -- °F
--% Chance of Precip.
Yesterday
High -- | Low -- °F
Precip. -- in
6:42 AM 7:50 PM
Waxing Crescent, 46% visible
Pressure 29.85 in
Visibility 8.0 miles
Clouds Clear
Dew Point 55 °F
Humidity 75%
Rainfall 0.00 in
Snow Depth Not available.
UV 1 out of 12
Pollen 5.80 out of 12
Air Quality Not available.
Flu Activity Not available.
METAR KCEC 020056Z AUTO 36011G18KT 8SM CLR 17/13 A2984 RMK AO2 SLP107 T01720128

More Conditions Fewer Conditions

Pressure 29.85 in
Visibility 8.0 miles
Clouds Clear
Dew Point 55 °F
Humidity 75%
Rainfall 0.00 in
Snow Depth Not available.
UV 1 out of 12
Pollen 5.80 out of 12
Air Quality Not available.
Flu Activity Not available.
METAR KCEC 020056Z AUTO 36011G18KT 8SM CLR 17/13 A2984 RMK AO2 SLP107 T01720128

More Conditions Fewer Conditions

10-Day Weather Forecast

Almanac

Astronomy

Sep. 01, 2014 Rise Set
Actual Time 6:42 AM PDT 7:50 PM PDT
Civil Twilight 6:14 AM PDT 8:18 PM PDT
Nautical Twilight 5:40 AM PDT 8:52 PM PDT
Astronomical Twilight 5:04 AM PDT 9:28 PM PDT
Moon 1:40 PM PDT (9/1) 11:50 PM PDT (9/1)
Length of Visible Light 14h 04m
Length of Day
13h 07m
Tomorrow will be 2m 42s shorter.
Waxing Crescent, 46% of the Moon is Illuminated
Today
Waxing Crescent
Sep 2
First Quarter
Sep 8
Full
Sep 15
Last Quarter
Sep 24
New

Today's Extremes

State Highs State Lows

Community

WunderPhotos

Upload Photos

1,749,493 photos uploaded!

Nearby

Snow Depth

Station Depth Elevation
Adin Mountain 1 in 6200 ft

Earthquake Activity

City Distance Mag. Time & Date
No recent earthquake activity has been reported nearby.
Minimum magnitude displayed is 2.5.

Coastal Water Temperatures

Place Temperature
Crescent City, CA 57.0 °F
North Spit, CA 57.0 °F
Port Orford, OR 52.0 °F

Nearby Weather Stations